sensor_id;sensor_type;location;lat;lon;timestamp;temperature;humidity
2751;DHT22;1383;48.362;10.908;2023-07-13T00:00:42;20.50;99.90
2751;DHT22;1383;48.362;10.908;2023-07-13T00:03:09;20.50;99.90
2751;DHT22;1383;48.362;10.908;2023-07-13T00:05:40;20.60;99.90
2751;DHT22;1383;48.362;10.908;2023-07-13T00:08:08;20.60;99.90
2751;DHT22;1383;48.362;10.908;2023-07-13T00:10:42;20.60;99.90
2751;DHT22;1383;48.362;10.908;2023-07-13T00:13:08;20.70;99.90
2751;DHT22;1383;48.362;10.908;2023-07-13T00:15:36;20.70;99.90
2751;DHT22;1383;48.362;10.908;2023-07-13T00:18:03;20.70;99.70
2751;DHT22;1383;48.362;10.908;2023-07-13T00:20:30;20.70;99.90
2751;DHT22;1383;48.362;10.908;2023-07-13T00:22:57;20.70;99.80
2751;DHT22;1383;48.362;10.908;2023-07-13T00:25:24;20.70;99.90
2751;DHT22;1383;48.362;10.908;2023-07-13T00:27:52;20.70;99.90
2751;DHT22;1383;48.362;10.908;2023-07-13T00:30:19;20.70;99.50
2751;DHT22;1383;48.362;10.908;2023-07-13T00:32:46;20.70;99.60
2751;DHT22;1383;48.362;10.908;2023-07-13T00:35:14;20.70;99.60
2751;DHT22;1383;48.362;10.908;2023-07-13T00:37:42;20.70;99.70
2751;DHT22;1383;48.362;10.908;2023-07-13T00:40:12;20.70;99.60
2751;DHT22;1383;48.362;10.908;2023-07-13T00:42:40;20.70;99.20
2751;DHT22;1383;48.362;10.908;2023-07-13T00:47:41;20.60;99.40
2751;DHT22;1383;48.362;10.908;2023-07-13T00:50:12;20.70;99.30
2751;DHT22;1383;48.362;10.908;2023-07-13T00:52:44;20.70;99.10
2751;DHT22;1383;48.362;10.908;2023-07-13T00:55:13;20.70;98.70
2751;DHT22;1383;48.362;10.908;2023-07-13T00:57:41;20.70;98.40
2751;DHT22;1383;48.362;10.908;2023-07-13T01:00:08;20.70;98.10
2751;DHT22;1383;48.362;10.908;2023-07-13T01:02:38;20.70;97.60
2751;DHT22;1383;48.362;10.908;2023-07-13T01:05:13;20.70;97.80
2751;DHT22;1383;48.362;10.908;2023-07-13T01:07:41;20.70;98.10
2751;DHT22;1383;48.362;10.908;2023-07-13T01:10:09;20.60;97.90
2751;DHT22;1383;48.362;10.908;2023-07-13T01:12:36;20.60;97.70
2751;DHT22;1383;48.362;10.908;2023-07-13T01:15:04;20.60;97.90
2751;DHT22;1383;48.362;10.908;2023-07-13T01:17:34;20.60;98.10
2751;DHT22;1383;48.362;10.908;2023-07-13T01:20:01;20.50;98.50
2751;DHT22;1383;48.362;10.908;2023-07-13T01:22:28;20.50;98.70
2751;DHT22;1383;48.362;10.908;2023-07-13T01:24:55;20.50;98.90
2751;DHT22;1383;48.362;10.908;2023-07-13T01:27:24;20.50;99.10
2751;DHT22;1383;48.362;10.908;2023-07-13T01:29:54;20.50;99.00
2751;DHT22;1383;48.362;10.908;2023-07-13T01:32:28;20.50;99.00
2751;DHT22;1383;48.362;10.908;2023-07-13T01:34:58;20.60;98.70
2751;DHT22;1383;48.362;10.908;2023-07-13T01:37:25;20.60;98.70
2751;DHT22;1383;48.362;10.908;2023-07-13T01:39:53;20.60;98.70
2751;DHT22;1383;48.362;10.908;2023-07-13T01:42:20;20.60;98.30
2751;DHT22;1383;48.362;10.908;2023-07-13T02:03:39;20.50;99.50
2751;DHT22;1383;48.362;10.908;2023-07-13T02:06:06;20.50;99.50
2751;DHT22;1383;48.362;10.908;2023-07-13T02:08:34;20.50;99.40
2751;DHT22;1383;48.362;10.908;2023-07-13T02:11:06;20.60;99.20
2751;DHT22;1383;48.362;10.908;2023-07-13T02:13:33;20.60;99.10
2751;DHT22;1383;48.362;10.908;2023-07-13T02:18:35;20.40;98.30
2751;DHT22;1383;48.362;10.908;2023-07-13T02:21:02;20.50;98.40
2751;DHT22;1383;48.362;10.908;2023-07-13T02:23:29;20.40;97.90
2751;DHT22;1383;48.362;10.908;2023-07-13T02:25:57;20.40;97.90
2751;DHT22;1383;48.362;10.908;2023-07-13T02:28:25;20.40;97.90
2751;DHT22;1383;48.362;10.908;2023-07-13T02:30:51;20.40;97.70
2751;DHT22;1383;48.362;10.908;2023-07-13T02:33:18;20.40;97.70
2751;DHT22;1383;48.362;10.908;2023-07-13T02:35:45;20.40;97.20
2751;DHT22;1383;48.362;10.908;2023-07-13T02:38:12;20.40;97.10
2751;DHT22;1383;48.362;10.908;2023-07-13T02:40:39;20.50;97.00
2751;DHT22;1383;48.362;10.908;2023-07-13T02:43:06;20.40;96.80
2751;DHT22;1383;48.362;10.908;2023-07-13T02:45:33;20.40;96.60
2751;DHT22;1383;48.362;10.908;2023-07-13T02:48:00;20.40;96.50
2751;DHT22;1383;48.362;10.908;2023-07-13T02:50:27;20.40;96.50
2751;DHT22;1383;48.362;10.908;2023-07-13T02:52:54;20.40;96.60
2751;DHT22;1383;48.362;10.908;2023-07-13T02:55:21;20.40;96.80
2751;DHT22;1383;48.362;10.908;2023-07-13T02:57:48;20.40;96.50
2751;DHT22;1383;48.362;10.908;2023-07-13T03:00:15;20.40;96.40
2751;DHT22;1383;48.362;10.908;2023-07-13T03:02:43;20.40;96.10
2751;DHT22;1383;48.362;10.908;2023-07-13T03:05:10;20.40;95.60
2751;DHT22;1383;48.362;10.908;2023-07-13T03:07:39;20.40;95.80
2751;DHT22;1383;48.362;10.908;2023-07-13T03:10:09;20.30;95.60
2751;DHT22;1383;48.362;10.908;2023-07-13T03:12:36;20.30;95.40
2751;DHT22;1383;48.362;10.908;2023-07-13T03:15:03;20.30;95.40
2751;DHT22;1383;48.362;10.908;2023-07-13T03:17:30;20.20;95.30
2751;DHT22;1383;48.362;10.908;2023-07-13T03:19:57;20.20;95.70
2751;DHT22;1383;48.362;10.908;2023-07-13T03:22:24;20.20;95.60
2751;DHT22;1383;48.362;10.908;2023-07-13T03:24:51;20.20;95.70
2751;DHT22;1383;48.362;10.908;2023-07-13T03:27:18;20.20;95.30
2751;DHT22;1383;48.362;10.908;2023-07-13T03:29:45;20.20;95.40
2751;DHT22;1383;48.362;10.908;2023-07-13T03:32:12;20.20;95.50
2751;DHT22;1383;48.362;10.908;2023-07-13T03:34:39;20.20;95.50
2751;DHT22;1383;48.362;10.908;2023-07-13T03:37:06;20.20;95.30
2751;DHT22;1383;48.362;10.908;2023-07-13T03:39:33;20.20;94.90
2751;DHT22;1383;48.362;10.908;2023-07-13T03:42:00;20.20;94.90
2751;DHT22;1383;48.362;10.908;2023-07-13T03:44:27;20.10;94.60
2751;DHT22;1383;48.362;10.908;2023-07-13T03:46:54;20.10;94.80
2751;DHT22;1383;48.362;10.908;2023-07-13T03:49:21;20.10;95.00
2751;DHT22;1383;48.362;10.908;2023-07-13T03:51:48;20.10;94.80
2751;DHT22;1383;48.362;10.908;2023-07-13T03:54:19;20.00;94.80
2751;DHT22;1383;48.362;10.908;2023-07-13T03:56:46;20.00;95.70
2751;DHT22;1383;48.362;10.908;2023-07-13T03:59:15;19.90;95.70
2751;DHT22;1383;48.362;10.908;2023-07-13T04:01:43;19.90;95.60
2751;DHT22;1383;48.362;10.908;2023-07-13T04:04:10;20.00;95.40
2751;DHT22;1383;48.362;10.908;2023-07-13T04:06:37;20.10;94.50
2751;DHT22;1383;48.362;10.908;2023-07-13T04:09:05;20.10;94.10
2751;DHT22;1383;48.362;10.908;2023-07-13T04:11:33;20.10;93.20
2751;DHT22;1383;48.362;10.908;2023-07-13T04:14:00;20.10;92.60
2751;DHT22;1383;48.362;10.908;2023-07-13T04:16:28;20.20;92.00
2751;DHT22;1383;48.362;10.908;2023-07-13T04:18:56;20.10;90.70
2751;DHT22;1383;48.362;10.908;2023-07-13T04:21:28;20.10;90.90
2751;DHT22;1383;48.362;10.908;2023-07-13T04:23:55;20.10;91.00
2751;DHT22;1383;48.362;10.908;2023-07-13T04:26:22;20.10;90.50
2751;DHT22;1383;48.362;10.908;2023-07-13T04:28:51;20.10;90.00
2751;DHT22;1383;48.362;10.908;2023-07-13T04:31:19;20.10;88.20
2751;DHT22;1383;48.362;10.908;2023-07-13T04:33:46;20.00;88.60
2751;DHT22;1383;48.362;10.908;2023-07-13T04:36:15;20.00;87.50
2751;DHT22;1383;48.362;10.908;2023-07-13T04:38:43;20.00;88.20
2751;DHT22;1383;48.362;10.908;2023-07-13T04:41:10;20.00;88.00
2751;DHT22;1383;48.362;10.908;2023-07-13T04:43:37;20.00;88.70
2751;DHT22;1383;48.362;10.908;2023-07-13T04:46:10;19.90;87.10
2751;DHT22;1383;48.362;10.908;2023-07-13T04:48:38;20.00;87.60
2751;DHT22;1383;48.362;10.908;2023-07-13T04:51:05;20.00;85.90
2751;DHT22;1383;48.362;10.908;2023-07-13T04:53:33;20.10;84.90
2751;DHT22;1383;48.362;10.908;2023-07-13T04:56:02;20.10;83.80
2751;DHT22;1383;48.362;10.908;2023-07-13T04:58:30;20.00;83.60
2751;DHT22;1383;48.362;10.908;2023-07-13T05:01:02;20.00;84.90
2751;DHT22;1383;48.362;10.908;2023-07-13T05:03:30;20.10;85.50
2751;DHT22;1383;48.362;10.908;2023-07-13T05:06:03;20.00;86.10
2751;DHT22;1383;48.362;10.908;2023-07-13T05:08:30;20.10;85.40
2751;DHT22;1383;48.362;10.908;2023-07-13T05:11:00;20.10;83.20
2751;DHT22;1383;48.362;10.908;2023-07-13T05:13:27;20.20;82.40
2751;DHT22;1383;48.362;10.908;2023-07-13T05:15:58;20.20;80.80
2751;DHT22;1383;48.362;10.908;2023-07-13T05:18:25;20.30;78.10
2751;DHT22;1383;48.362;10.908;2023-07-13T05:21:02;20.30;77.60
2751;DHT22;1383;48.362;10.908;2023-07-13T05:23:30;20.40;77.60
2751;DHT22;1383;48.362;10.908;2023-07-13T05:25:58;20.40;77.20
2751;DHT22;1383;48.362;10.908;2023-07-13T05:28:30;20.40;76.30
2751;DHT22;1383;48.362;10.908;2023-07-13T05:30:57;20.50;76.20
2751;DHT22;1383;48.362;10.908;2023-07-13T05:33:25;20.60;75.30
2751;DHT22;1383;48.362;10.908;2023-07-13T05:35:52;20.60;74.20
2751;DHT22;1383;48.362;10.908;2023-07-13T05:38:20;20.50;73.00
2751;DHT22;1383;48.362;10.908;2023-07-13T05:40:47;20.50;72.50
2751;DHT22;1383;48.362;10.908;2023-07-13T05:43:14;20.70;71.50
2751;DHT22;1383;48.362;10.908;2023-07-13T05:45:42;20.80;70.10
2751;DHT22;1383;48.362;10.908;2023-07-13T05:48:09;21.00;69.30
2751;DHT22;1383;48.362;10.908;2023-07-13T05:50:36;21.20;69.00
2751;DHT22;1383;48.362;10.908;2023-07-13T05:53:03;21.40;63.50
2751;DHT22;1383;48.362;10.908;2023-07-13T05:55:30;21.60;60.30
2751;DHT22;1383;48.362;10.908;2023-07-13T05:57:57;21.70;57.50
2751;DHT22;1383;48.362;10.908;2023-07-13T06:00:25;21.60;55.50
2751;DHT22;1383;48.362;10.908;2023-07-13T06:02:52;21.40;56.40
2751;DHT22;1383;48.362;10.908;2023-07-13T06:05:19;21.30;55.60
2751;DHT22;1383;48.362;10.908;2023-07-13T06:07:46;21.10;55.40
2751;DHT22;1383;48.362;10.908;2023-07-13T06:12:49;21.00;55.90
2751;DHT22;1383;48.362;10.908;2023-07-13T06:15:16;21.10;58.50
2751;DHT22;1383;48.362;10.908;2023-07-13T06:17:44;21.00;58.60
2751;DHT22;1383;48.362;10.908;2023-07-13T06:20:11;21.00;59.30
2751;DHT22;1383;48.362;10.908;2023-07-13T06:22:38;21.10;61.10
2751;DHT22;1383;48.362;10.908;2023-07-13T06:25:06;21.20;60.60
2751;DHT22;1383;48.362;10.908;2023-07-13T06:27:33;21.20;60.40
2751;DHT22;1383;48.362;10.908;2023-07-13T06:30:00;21.20;58.70
2751;DHT22;1383;48.362;10.908;2023-07-13T06:32:27;21.20;59.30
2751;DHT22;1383;48.362;10.908;2023-07-13T06:34:54;21.20;58.80
2751;DHT22;1383;48.362;10.908;2023-07-13T06:37:21;21.20;58.50
2751;DHT22;1383;48.362;10.908;2023-07-13T06:39:47;21.10;57.80
2751;DHT22;1383;48.362;10.908;2023-07-13T06:42:16;21.10;58.90
2751;DHT22;1383;48.362;10.908;2023-07-13T06:44:43;21.10;58.70
2751;DHT22;1383;48.362;10.908;2023-07-13T06:47:12;21.00;59.10
2751;DHT22;1383;48.362;10.908;2023-07-13T06:49:39;21.00;58.70
2751;DHT22;1383;48.362;10.908;2023-07-13T06:52:06;21.00;60.00
2751;DHT22;1383;48.362;10.908;2023-07-13T06:54:33;21.00;60.60
2751;DHT22;1383;48.362;10.908;2023-07-13T06:57:01;21.00;60.30
2751;DHT22;1383;48.362;10.908;2023-07-13T06:59:28;21.00;59.80
2751;DHT22;1383;48.362;10.908;2023-07-13T07:01:55;21.10;60.30
2751;DHT22;1383;48.362;10.908;2023-07-13T07:04:22;21.10;60.10
2751;DHT22;1383;48.362;10.908;2023-07-13T07:06:52;21.10;60.00
2751;DHT22;1383;48.362;10.908;2023-07-13T07:09:22;21.10;60.00
2751;DHT22;1383;48.362;10.908;2023-07-13T07:11:49;21.10;61.40
2751;DHT22;1383;48.362;10.908;2023-07-13T07:14:23;21.20;60.40
2751;DHT22;1383;48.362;10.908;2023-07-13T07:16:50;21.10;61.50
2751;DHT22;1383;48.362;10.908;2023-07-13T07:19:17;21.20;60.50
2751;DHT22;1383;48.362;10.908;2023-07-13T07:21:44;21.30;59.50
2751;DHT22;1383;48.362;10.908;2023-07-13T07:24:10;21.40;60.30
2751;DHT22;1383;48.362;10.908;2023-07-13T07:26:37;21.60;58.90
2751;DHT22;1383;48.362;10.908;2023-07-13T07:29:07;21.80;58.50
2751;DHT22;1383;48.362;10.908;2023-07-13T07:31:37;21.90;53.50
2751;DHT22;1383;48.362;10.908;2023-07-13T07:34:07;22.00;53.00
2751;DHT22;1383;48.362;10.908;2023-07-13T07:36:34;22.20;53.00
2751;DHT22;1383;48.362;10.908;2023-07-13T07:39:04;22.40;52.60
2751;DHT22;1383;48.362;10.908;2023-07-13T07:41:31;22.60;51.20
2751;DHT22;1383;48.362;10.908;2023-07-13T07:44:01;22.80;50.40
2751;DHT22;1383;48.362;10.908;2023-07-13T07:46:28;22.90;49.50
2751;DHT22;1383;48.362;10.908;2023-07-13T07:48:56;22.90;48.90
2751;DHT22;1383;48.362;10.908;2023-07-13T07:51:23;23.10;47.30
2751;DHT22;1383;48.362;10.908;2023-07-13T07:53:49;23.20;47.20
2751;DHT22;1383;48.362;10.908;2023-07-13T07:56:16;23.30;46.80
2751;DHT22;1383;48.362;10.908;2023-07-13T07:58:46;23.20;46.80
2751;DHT22;1383;48.362;10.908;2023-07-13T08:01:16;23.10;47.00
2751;DHT22;1383;48.362;10.908;2023-07-13T08:03:46;23.30;46.60
2751;DHT22;1383;48.362;10.908;2023-07-13T08:06:19;23.50;46.10
2751;DHT22;1383;48.362;10.908;2023-07-13T08:08:51;23.70;45.40
2751;DHT22;1383;48.362;10.908;2023-07-13T08:11:20;23.70;44.00
2751;DHT22;1383;48.362;10.908;2023-07-13T08:13:50;23.50;38.40
2751;DHT22;1383;48.362;10.908;2023-07-13T08:16:21;23.40;38.60
2751;DHT22;1383;48.362;10.908;2023-07-13T08:18:49;23.30;37.40
2751;DHT22;1383;48.362;10.908;2023-07-13T08:21:16;23.50;37.90
2751;DHT22;1383;48.362;10.908;2023-07-13T08:23:49;23.40;38.50
2751;DHT22;1383;48.362;10.908;2023-07-13T08:26:16;23.60;38.70
2751;DHT22;1383;48.362;10.908;2023-07-13T08:28:43;23.80;38.10
2751;DHT22;1383;48.362;10.908;2023-07-13T08:31:10;24.00;39.10
2751;DHT22;1383;48.362;10.908;2023-07-13T08:33:38;23.80;36.20
2751;DHT22;1383;48.362;10.908;2023-07-13T08:36:05;23.80;35.10
2751;DHT22;1383;48.362;10.908;2023-07-13T08:38:33;23.90;36.50
2751;DHT22;1383;48.362;10.908;2023-07-13T08:41:09;24.10;34.40
2751;DHT22;1383;48.362;10.908;2023-07-13T08:43:39;24.20;32.30
2751;DHT22;1383;48.362;10.908;2023-07-13T08:46:32;24.50;33.70
2751;DHT22;1383;48.362;10.908;2023-07-13T08:49:09;24.90;34.20
2751;DHT22;1383;48.362;10.908;2023-07-13T08:51:44;25.20;32.70
2751;DHT22;1383;48.362;10.908;2023-07-13T08:54:32;25.40;31.00
2751;DHT22;1383;48.362;10.908;2023-07-13T08:57:12;25.50;31.60
2751;DHT22;1383;48.362;10.908;2023-07-13T08:59:40;25.60;30.70
2751;DHT22;1383;48.362;10.908;2023-07-13T09:02:23;25.60;28.60
2751;DHT22;1383;48.362;10.908;2023-07-13T09:05:02;25.60;29.20
2751;DHT22;1383;48.362;10.908;2023-07-13T09:10:57;25.50;27.20
2751;DHT22;1383;48.362;10.908;2023-07-13T09:13:28;25.60;28.70
2751;DHT22;1383;48.362;10.908;2023-07-13T09:16:01;25.70;28.30
2751;DHT22;1383;48.362;10.908;2023-07-13T09:18:37;26.00;28.50
2751;DHT22;1383;48.362;10.908;2023-07-13T09:21:08;26.20;25.40
2751;DHT22;1383;48.362;10.908;2023-07-13T09:23:37;26.30;26.50
2751;DHT22;1383;48.362;10.908;2023-07-13T09:26:13;26.30;26.30
2751;DHT22;1383;48.362;10.908;2023-07-13T09:28:47;26.30;25.90
2751;DHT22;1383;48.362;10.908;2023-07-13T09:31:23;26.30;25.50
2751;DHT22;1383;48.362;10.908;2023-07-13T09:33:51;26.30;25.80
2751;DHT22;1383;48.362;10.908;2023-07-13T09:39:03;26.40;25.60
2751;DHT22;1383;48.362;10.908;2023-07-13T09:41:47;26.20;23.80
2751;DHT22;1383;48.362;10.908;2023-07-13T09:44:27;26.00;23.80
2751;DHT22;1383;48.362;10.908;2023-07-13T09:46:57;26.10;23.60
2751;DHT22;1383;48.362;10.908;2023-07-13T09:49:28;26.10;23.30
2751;DHT22;1383;48.362;10.908;2023-07-13T09:52:09;25.90;24.40
2751;DHT22;1383;48.362;10.908;2023-07-13T09:54:37;25.80;23.90
2751;DHT22;1383;48.362;10.908;2023-07-13T09:57:13;25.60;23.50
2751;DHT22;1383;48.362;10.908;2023-07-13T09:59:48;25.40;24.00
2751;DHT22;1383;48.362;10.908;2023-07-13T10:02:35;25.50;24.30
2751;DHT22;1383;48.362;10.908;2023-07-13T10:05:11;25.60;23.60
2751;DHT22;1383;48.362;10.908;2023-07-13T10:07:41;25.40;24.50
2751;DHT22;1383;48.362;10.908;2023-07-13T10:10:22;25.30;24.00
2751;DHT22;1383;48.362;10.908;2023-07-13T10:12:50;25.30;25.60
2751;DHT22;1383;48.362;10.908;2023-07-13T10:15:23;25.60;25.40
2751;DHT22;1383;48.362;10.908;2023-07-13T10:17:54;26.10;25.00
2751;DHT22;1383;48.362;10.908;2023-07-13T10:20:26;26.50;24.70
2751;DHT22;1383;48.362;10.908;2023-07-13T10:23:04;26.90;23.40
2751;DHT22;1383;48.362;10.908;2023-07-13T10:25:35;27.30;22.50
2751;DHT22;1383;48.362;10.908;2023-07-13T10:28:36;27.70;21.70
2751;DHT22;1383;48.362;10.908;2023-07-13T10:31:08;28.00;21.10
2751;DHT22;1383;48.362;10.908;2023-07-13T10:33:38;28.50;20.70
2751;DHT22;1383;48.362;10.908;2023-07-13T10:38:53;28.00;19.50
2751;DHT22;1383;48.362;10.908;2023-07-13T10:41:23;27.50;19.90
2751;DHT22;1383;48.362;10.908;2023-07-13T10:43:55;27.40;20.80
2751;DHT22;1383;48.362;10.908;2023-07-13T10:46:32;27.20;21.90
2751;DHT22;1383;48.362;10.908;2023-07-13T10:49:03;27.60;20.20
2751;DHT22;1383;48.362;10.908;2023-07-13T10:51:32;28.20;19.80
2751;DHT22;1383;48.362;10.908;2023-07-13T10:54:19;28.30;20.50
2751;DHT22;1383;48.362;10.908;2023-07-13T10:59:49;28.00;19.70
2751;DHT22;1383;48.362;10.908;2023-07-13T11:02:56;27.80;21.30
2751;DHT22;1383;48.362;10.908;2023-07-13T11:08:31;27.00;21.90
2751;DHT22;1383;48.362;10.908;2023-07-13T11:11:00;26.60;22.20
2751;DHT22;1383;48.362;10.908;2023-07-13T11:18:50;26.00;24.50
2751;DHT22;1383;48.362;10.908;2023-07-13T11:21:25;25.80;24.60
2751;DHT22;1383;48.362;10.908;2023-07-13T11:24:14;25.60;25.00
2751;DHT22;1383;48.362;10.908;2023-07-13T11:26:56;25.30;25.20
2751;DHT22;1383;48.362;10.908;2023-07-13T11:29:38;25.10;25.30
2751;DHT22;1383;48.362;10.908;2023-07-13T11:32:30;24.90;25.40
2751;DHT22;1383;48.362;10.908;2023-07-13T11:34:58;24.80;25.90
2751;DHT22;1383;48.362;10.908;2023-07-13T11:37:26;24.80;25.10
2751;DHT22;1383;48.362;10.908;2023-07-13T11:40:02;24.80;26.90
2751;DHT22;1383;48.362;10.908;2023-07-13T11:42:31;24.70;26.60
2751;DHT22;1383;48.362;10.908;2023-07-13T11:45:01;24.30;26.00
2751;DHT22;1383;48.362;10.908;2023-07-13T11:47:40;24.20;26.50
2751;DHT22;1383;48.362;10.908;2023-07-13T11:50:21;24.50;27.40
2751;DHT22;1383;48.362;10.908;2023-07-13T11:52:51;24.60;27.20
2751;DHT22;1383;48.362;10.908;2023-07-13T11:55:22;24.80;27.10
2751;DHT22;1383;48.362;10.908;2023-07-13T11:57:56;24.90;26.70
2751;DHT22;1383;48.362;10.908;2023-07-13T12:00:29;24.80;26.60
2751;DHT22;1383;48.362;10.908;2023-07-13T12:03:03;24.80;27.10
2751;DHT22;1383;48.362;10.908;2023-07-13T12:05:37;24.80;27.10
2751;DHT22;1383;48.362;10.908;2023-07-13T12:08:28;24.80;26.90
2751;DHT22;1383;48.362;10.908;2023-07-13T12:11:03;24.90;26.90
2751;DHT22;1383;48.362;10.908;2023-07-13T12:13:38;25.00;27.10
2751;DHT22;1383;48.362;10.908;2023-07-13T12:32:32;25.60;25.50
2751;DHT22;1383;48.362;10.908;2023-07-13T12:35:15;25.70;25.50
2751;DHT22;1383;48.362;10.908;2023-07-13T12:37:43;25.80;25.10
2751;DHT22;1383;48.362;10.908;2023-07-13T12:40:32;25.90;25.30
2751;DHT22;1383;48.362;10.908;2023-07-13T12:43:03;26.00;25.30
2751;DHT22;1383;48.362;10.908;2023-07-13T12:45:34;25.80;25.20
2751;DHT22;1383;48.362;10.908;2023-07-13T12:48:14;25.80;25.20
2751;DHT22;1383;48.362;10.908;2023-07-13T12:50:56;25.70;25.50
2751;DHT22;1383;48.362;10.908;2023-07-13T12:53:29;25.60;26.40
2751;DHT22;1383;48.362;10.908;2023-07-13T12:56:02;25.50;25.40
2751;DHT22;1383;48.362;10.908;2023-07-13T12:58:39;25.50;25.10
2751;DHT22;1383;48.362;10.908;2023-07-13T13:01:10;25.50;25.10
2751;DHT22;1383;48.362;10.908;2023-07-13T13:03:49;25.50;25.10
2751;DHT22;1383;48.362;10.908;2023-07-13T13:06:26;25.60;25.10
2751;DHT22;1383;48.362;10.908;2023-07-13T13:08:56;25.60;24.90
2751;DHT22;1383;48.362;10.908;2023-07-13T13:11:28;25.70;25.00
2751;DHT22;1383;48.362;10.908;2023-07-13T13:13:56;25.60;25.30
2751;DHT22;1383;48.362;10.908;2023-07-13T13:19:00;25.80;25.20
2751;DHT22;1383;48.362;10.908;2023-07-13T13:21:29;25.90;25.70
2751;DHT22;1383;48.362;10.908;2023-07-13T13:23:56;25.90;25.30
2751;DHT22;1383;48.362;10.908;2023-07-13T13:26:25;25.90;24.70
2751;DHT22;1383;48.362;10.908;2023-07-13T13:28:54;25.90;25.20
2751;DHT22;1383;48.362;10.908;2023-07-13T13:44:46;25.60;25.70
2751;DHT22;1383;48.362;10.908;2023-07-13T13:47:30;25.70;25.50
2751;DHT22;1383;48.362;10.908;2023-07-13T13:50:00;25.80;25.20
2751;DHT22;1383;48.362;10.908;2023-07-13T13:52:28;25.80;25.50
2751;DHT22;1383;48.362;10.908;2023-07-13T13:54:56;25.70;25.10
2751;DHT22;1383;48.362;10.908;2023-07-13T13:57:24;25.70;25.30
2751;DHT22;1383;48.362;10.908;2023-07-13T13:59:56;25.70;25.00
2751;DHT22;1383;48.362;10.908;2023-07-13T14:02:26;25.50;25.90
2751;DHT22;1383;48.362;10.908;2023-07-13T14:05:06;25.50;25.60
2751;DHT22;1383;48.362;10.908;2023-07-13T14:07:35;25.50;25.60
2751;DHT22;1383;48.362;10.908;2023-07-13T14:10:13;25.40;25.80
2751;DHT22;1383;48.362;10.908;2023-07-13T14:12:43;25.40;26.40
2751;DHT22;1383;48.362;10.908;2023-07-13T14:28:33;24.80;26.90
2751;DHT22;1383;48.362;10.908;2023-07-13T14:34:48;24.80;27.00
2751;DHT22;1383;48.362;10.908;2023-07-13T14:37:15;24.90;26.60
2751;DHT22;1383;48.362;10.908;2023-07-13T14:39:44;25.10;26.90
2751;DHT22;1383;48.362;10.908;2023-07-13T14:42:12;25.30;26.70
2751;DHT22;1383;48.362;10.908;2023-07-13T14:44:39;25.30;24.00
2751;DHT22;1383;48.362;10.908;2023-07-13T14:47:12;25.30;24.40
2751;DHT22;1383;48.362;10.908;2023-07-13T14:49:42;25.30;24.90
2751;DHT22;1383;48.362;10.908;2023-07-13T14:52:22;25.30;24.90
2751;DHT22;1383;48.362;10.908;2023-07-13T14:54:55;25.40;25.40
2751;DHT22;1383;48.362;10.908;2023-07-13T14:57:24;25.50;25.70
2751;DHT22;1383;48.362;10.908;2023-07-13T14:59:52;25.40;25.00
2751;DHT22;1383;48.362;10.908;2023-07-13T15:02:27;25.40;25.00
2751;DHT22;1383;48.362;10.908;2023-07-13T15:04:58;25.40;25.00
2751;DHT22;1383;48.362;10.908;2023-07-13T15:07:25;25.40;25.00
2751;DHT22;1383;48.362;10.908;2023-07-13T15:09:53;25.40;24.10
2751;DHT22;1383;48.362;10.908;2023-07-13T15:12:21;25.30;24.40
2751;DHT22;1383;48.362;10.908;2023-07-13T15:14:48;25.40;24.90
2751;DHT22;1383;48.362;10.908;2023-07-13T15:17:28;25.60;24.40
2751;DHT22;1383;48.362;10.908;2023-07-13T15:30:43;25.50;22.80
2751;DHT22;1383;48.362;10.908;2023-07-13T15:35:44;25.60;22.50
2751;DHT22;1383;48.362;10.908;2023-07-13T15:38:30;25.60;23.00
2751;DHT22;1383;48.362;10.908;2023-07-13T15:40:58;25.60;23.40
2751;DHT22;1383;48.362;10.908;2023-07-13T15:43:32;25.60;23.00
2751;DHT22;1383;48.362;10.908;2023-07-13T16:10:09;25.60;23.40
2751;DHT22;1383;48.362;10.908;2023-07-13T16:12:39;25.50;23.10
2751;DHT22;1383;48.362;10.908;2023-07-13T16:15:17;25.60;23.80
2751;DHT22;1383;48.362;10.908;2023-07-13T16:17:46;25.60;24.10
2751;DHT22;1383;48.362;10.908;2023-07-13T16:20:15;25.50;24.20
2751;DHT22;1383;48.362;10.908;2023-07-13T16:36:13;25.40;23.90
2751;DHT22;1383;48.362;10.908;2023-07-13T16:38:44;25.40;24.30
2751;DHT22;1383;48.362;10.908;2023-07-13T16:41:16;25.40;24.40
2751;DHT22;1383;48.362;10.908;2023-07-13T16:51:42;25.40;24.00
2751;DHT22;1383;48.362;10.908;2023-07-13T16:54:13;25.40;24.20
2751;DHT22;1383;48.362;10.908;2023-07-13T16:56:45;25.40;24.60
2751;DHT22;1383;48.362;10.908;2023-07-13T16:59:15;25.30;24.80
2751;DHT22;1383;48.362;10.908;2023-07-13T17:01:46;25.40;24.80
2751;DHT22;1383;48.362;10.908;2023-07-13T17:07:14;25.30;25.10
2751;DHT22;1383;48.362;10.908;2023-07-13T17:09:50;25.30;24.90
2751;DHT22;1383;48.362;10.908;2023-07-13T17:14:57;25.30;25.10
2751;DHT22;1383;48.362;10.908;2023-07-13T17:17:32;25.30;25.20
2751;DHT22;1383;48.362;10.908;2023-07-13T17:20:00;25.30;25.20
2751;DHT22;1383;48.362;10.908;2023-07-13T17:22:28;25.20;25.30
2751;DHT22;1383;48.362;10.908;2023-07-13T17:25:17;25.10;25.40
2751;DHT22;1383;48.362;10.908;2023-07-13T17:27:47;25.10;24.40
2751;DHT22;1383;48.362;10.908;2023-07-13T17:30:22;25.00;25.20
2751;DHT22;1383;48.362;10.908;2023-07-13T17:32:53;25.00;25.90
2751;DHT22;1383;48.362;10.908;2023-07-13T17:35:29;25.00;25.80
2751;DHT22;1383;48.362;10.908;2023-07-13T17:37:59;25.00;25.80
2751;DHT22;1383;48.362;10.908;2023-07-13T17:40:28;24.90;26.40
2751;DHT22;1383;48.362;10.908;2023-07-13T17:42:56;24.90;26.60
2751;DHT22;1383;48.362;10.908;2023-07-13T17:45:28;24.90;26.70
2751;DHT22;1383;48.362;10.908;2023-07-13T17:48:10;24.90;26.70
2751;DHT22;1383;48.362;10.908;2023-07-13T17:50:39;24.80;27.00
2751;DHT22;1383;48.362;10.908;2023-07-13T17:53:19;24.80;27.30
2751;DHT22;1383;48.362;10.908;2023-07-13T18:20:08;24.30;28.70
2751;DHT22;1383;48.362;10.908;2023-07-13T18:22:41;24.30;28.90
2751;DHT22;1383;48.362;10.908;2023-07-13T18:25:16;24.30;29.00
2751;DHT22;1383;48.362;10.908;2023-07-13T18:27:44;24.20;28.90
2751;DHT22;1383;48.362;10.908;2023-07-13T18:30:14;24.20;29.30
2751;DHT22;1383;48.362;10.908;2023-07-13T18:32:53;24.10;29.10
2751;DHT22;1383;48.362;10.908;2023-07-13T18:35:30;24.10;29.70
2751;DHT22;1383;48.362;10.908;2023-07-13T18:37:59;24.00;29.90
2751;DHT22;1383;48.362;10.908;2023-07-13T18:40:27;24.00;30.30
2751;DHT22;1383;48.362;10.908;2023-07-13T18:42:56;23.90;30.40
2751;DHT22;1383;48.362;10.908;2023-07-13T18:45:24;23.90;30.30
2751;DHT22;1383;48.362;10.908;2023-07-13T18:47:55;23.90;30.80
2751;DHT22;1383;48.362;10.908;2023-07-13T18:50:32;23.90;31.60
2751;DHT22;1383;48.362;10.908;2023-07-13T18:53:00;23.80;32.00
2751;DHT22;1383;48.362;10.908;2023-07-13T18:55:27;23.80;32.60
2751;DHT22;1383;48.362;10.908;2023-07-13T18:57:54;23.70;32.20
2751;DHT22;1383;48.362;10.908;2023-07-13T19:00:23;23.60;32.00
2751;DHT22;1383;48.362;10.908;2023-07-13T19:02:54;23.60;32.40
2751;DHT22;1383;48.362;10.908;2023-07-13T19:08:27;23.50;33.10
2751;DHT22;1383;48.362;10.908;2023-07-13T19:10:54;23.40;33.60
2751;DHT22;1383;48.362;10.908;2023-07-13T19:13:30;23.40;34.90